Time;durP1;ratioP1;P1;durP2;ratioP2;P2;SDS_P1;SDS_P2;PMS_P1;PMS_P2;Temp;Humidity;BMP_temperature;BMP_pressure;BME280_temperature;BME280_humidity;BME280_pressure;Samples;Min_cycle;Max_cycle;Signal;HPM_P1;HPM_P2
2023/11/07 00:00:05;;;;;;;6.07;1.95;;;;;;;;;;5051267;28;20360;-60
2023/11/07 00:02:33;;;;;;;9.30;1.97;;;;;;;;;;4995042;28;20066;-59
2023/11/07 00:05:00;;;;;;;5.20;2.45;;;;;;;;;;4971761;28;20388;-59
2023/11/07 00:07:26;;;;;;;6.90;1.75;;;;;;;;;;4970124;28;20153;-59
2023/11/07 00:09:54;;;;;;;9.30;1.50;;;;;;;;;;4971596;28;20346;-59
2023/11/07 00:12:22;;;;;;;5.32;1.50;;;;;;;;;;4965989;28;20080;-59
2023/11/07 00:14:50;;;;;;;4.53;1.60;;;;;;;;;;4957733;28;20118;-61
2023/11/07 00:17:17;;;;;;;3.90;1.55;;;;;;;;;;4953984;28;20090;-59
2023/11/07 00:19:44;;;;;;;5.65;1.52;;;;;;;;;;4962964;28;20094;-58
2023/11/07 00:22:13;;;;;;;4.63;1.30;;;;;;;;;;4954613;28;20078;-59
2023/11/07 00:24:40;;;;;;;4.97;1.35;;;;;;;;;;4956896;28;20066;-59
2023/11/07 00:27:07;;;;;;;8.35;1.50;;;;;;;;;;4952792;28;20086;-61
2023/11/07 00:29:35;;;;;;;6.57;1.70;;;;;;;;;;4975860;28;20050;-61
2023/11/07 00:32:01;;;;;;;7.85;2.05;;;;;;;;;;4992668;28;20169;-61
2023/11/07 00:34:28;;;;;;;5.57;1.50;;;;;;;;;;4969073;28;20146;-61
2023/11/07 00:36:54;;;;;;;5.90;1.58;;;;;;;;;;4972762;28;20260;-57
2023/11/07 00:39:21;;;;;;;7.15;1.95;;;;;;;;;;4977118;28;20054;-59
2023/11/07 00:41:47;;;;;;;6.40;1.88;;;;;;;;;;4975476;28;20101;-59
2023/11/07 00:44:14;;;;;;;8.02;1.55;;;;;;;;;;4975996;28;20139;-59
2023/11/07 00:46:42;;;;;;;5.63;1.38;;;;;;;;;;5052572;28;20162;-59
2023/11/07 00:49:09;;;;;;;5.60;1.67;;;;;;;;;;5015074;28;20046;-59
2023/11/07 00:51:35;;;;;;;6.93;1.50;;;;;;;;;;4972596;28;20486;-59
2023/11/07 00:54:02;;;;;;;6.82;1.48;;;;;;;;;;4966627;28;20125;-59
2023/11/07 00:56:29;;;;;;;6.00;1.60;;;;;;;;;;4980959;28;20366;-59
2023/11/07 00:58:55;;;;;;;5.10;1.90;;;;;;;;;;4976692;28;20055;-59
2023/11/07 01:01:22;;;;;;;4.90;1.60;;;;;;;;;;4977053;28;20062;-59
2023/11/07 01:03:50;;;;;;;8.77;1.60;;;;;;;;;;4975459;28;20059;-59
2023/11/07 01:06:16;;;;;;;5.80;1.63;;;;;;;;;;4948190;28;20054;-59
2023/11/07 01:08:43;;;;;;;4.75;1.55;;;;;;;;;;4957094;28;20295;-59
2023/11/07 01:11:10;;;;;;;6.55;1.60;;;;;;;;;;4957060;28;20714;-59
2023/11/07 01:13:37;;;;;;;5.10;1.70;;;;;;;;;;4958932;28;20050;-59
2023/11/07 01:16:04;;;;;;;8.38;1.75;;;;;;;;;;4954093;28;20232;-59
2023/11/07 01:18:31;;;;;;;8.75;1.80;;;;;;;;;;4966553;28;20071;-59
2023/11/07 01:20:59;;;;;;;5.57;1.63;;;;;;;;;;4956348;28;20073;-58
2023/11/07 01:23:26;;;;;;;6.88;1.80;;;;;;;;;;4955949;28;20046;-58
2023/11/07 01:25:53;;;;;;;11.43;1.83;;;;;;;;;;4955675;28;20135;-61
2023/11/07 01:28:21;;;;;;;7.63;1.75;;;;;;;;;;4947867;28;20150;-58
2023/11/07 01:30:48;;;;;;;5.65;2.03;;;;;;;;;;4976847;28;20055;-61
2023/11/07 01:33:15;;;;;;;8.43;1.65;;;;;;;;;;4970703;28;20112;-59
2023/11/07 01:35:42;;;;;;;5.55;1.60;;;;;;;;;;4955816;28;20054;-59
2023/11/07 01:38:10;;;;;;;8.70;1.85;;;;;;;;;;4952425;28;20070;-59
2023/11/07 01:40:37;;;;;;;4.47;1.83;;;;;;;;;;4953409;28;20085;-59
2023/11/07 01:43:12;;;;;;;8.23;1.80;;;;;;;;;;4985893;28;20116;-59
2023/11/07 01:45:39;;;;;;;7.03;1.88;;;;;;;;;;4977156;28;20176;-59
2023/11/07 01:48:08;;;;;;;5.75;1.70;;;;;;;;;;4946493;28;20051;-60
2023/11/07 01:50:35;;;;;;;6.88;1.75;;;;;;;;;;4953013;28;20062;-60
2023/11/07 01:53:02;;;;;;;4.57;1.33;;;;;;;;;;4955473;28;20054;-60
2023/11/07 01:55:32;;;;;;;7.65;1.58;;;;;;;;;;4955994;28;20087;-61
2023/11/07 01:58:00;;;;;;;11.10;1.90;;;;;;;;;;4969070;28;20054;-59
2023/11/07 02:00:28;;;;;;;7.35;2.35;;;;;;;;;;4965619;28;20078;-59
2023/11/07 02:02:55;;;;;;;4.43;1.85;;;;;;;;;;4956446;28;20147;-59
2023/11/07 02:05:21;;;;;;;5.43;1.50;;;;;;;;;;4970344;28;20078;-58
2023/11/07 02:07:48;;;;;;;10.45;1.73;;;;;;;;;;4952323;28;20050;-61
2023/11/07 02:10:15;;;;;;;12.25;2.35;;;;;;;;;;4950867;28;20524;-59
2023/11/07 02:12:45;;;;;;;7.75;2.40;;;;;;;;;;4955526;28;20124;-59
2023/11/07 02:15:19;;;;;;;6.57;1.70;;;;;;;;;;4956306;28;20059;-59
2023/11/07 02:17:46;;;;;;;3.38;1.13;;;;;;;;;;4952133;28;20081;-59
2023/11/07 02:20:14;;;;;;;9.05;2.08;;;;;;;;;;4954466;28;20050;-59
2023/11/07 02:22:42;;;;;;;4.53;1.30;;;;;;;;;;4956516;28;20449;-59
2023/11/07 02:25:13;;;;;;;6.50;1.50;;;;;;;;;;4954884;28;20058;-59
2023/11/07 02:27:40;;;;;;;7.32;1.70;;;;;;;;;;4951679;28;20063;-59
2023/11/07 02:30:11;;;;;;;9.15;1.80;;;;;;;;;;4954989;28;20066;-59
2023/11/07 02:32:39;;;;;;;5.18;1.77;;;;;;;;;;4970769;28;20059;-58
2023/11/07 02:35:06;;;;;;;6.70;1.70;;;;;;;;;;4957261;28;20055;-59
2023/11/07 02:37:33;;;;;;;5.65;1.60;;;;;;;;;;5020204;28;20165;-59
2023/11/07 02:39:59;;;;;;;5.28;1.55;;;;;;;;;;5055463;28;20171;-59
2023/11/07 02:42:28;;;;;;;3.80;1.42;;;;;;;;;;5009329;28;20054;-59
2023/11/07 02:44:55;;;;;;;7.25;1.55;;;;;;;;;;5009691;28;20116;-58
2023/11/07 02:47:22;;;;;;;6.25;1.58;;;;;;;;;;4954920;28;20058;-59
2023/11/07 02:49:48;;;;;;;7.43;1.92;;;;;;;;;;4955214;28;20058;-59
2023/11/07 02:52:15;;;;;;;5.45;1.50;;;;;;;;;;4947998;28;20062;-60
2023/11/07 02:54:42;;;;;;;6.55;1.60;;;;;;;;;;4954992;28;20065;-59
2023/11/07 02:57:10;;;;;;;8.55;2.13;;;;;;;;;;4950424;28;20054;-59
2023/11/07 02:59:38;;;;;;;8.50;1.50;;;;;;;;;;4954806;28;20058;-60
2023/11/07 03:02:05;;;;;;;10.18;1.60;;;;;;;;;;4940714;28;20081;-59
2023/11/07 03:04:31;;;;;;;7.15;1.45;;;;;;;;;;4935765;28;20125;-59
2023/11/07 03:06:58;;;;;;;7.53;2.03;;;;;;;;;;4990435;28;20058;-59
2023/11/07 03:09:25;;;;;;;4.35;1.45;;;;;;;;;;4973008;28;20058;-59
2023/11/07 03:11:52;;;;;;;7.55;1.67;;;;;;;;;;4973701;28;20054;-58
2023/11/07 03:14:18;;;;;;;11.50;1.48;;;;;;;;;;4961162;28;20145;-59
2023/11/07 03:16:47;;;;;;;7.82;1.70;;;;;;;;;;4991756;28;20082;-62
2023/11/07 03:19:13;;;;;;;10.38;1.60;;;;;;;;;;4975879;28;20060;-59
2023/11/07 03:21:40;;;;;;;8.93;2.25;;;;;;;;;;4974158;28;20051;-59
2023/11/07 03:24:08;;;;;;;7.18;1.80;;;;;;;;;;4983404;28;20046;-61
2023/11/07 03:26:35;;;;;;;4.80;1.35;;;;;;;;;;4934781;28;20063;-59
2023/11/07 03:29:02;;;;;;;8.70;1.75;;;;;;;;;;4935429;28;20051;-59
2023/11/07 03:31:29;;;;;;;7.45;1.67;;;;;;;;;;4951653;28;20055;-59
2023/11/07 03:33:56;;;;;;;6.65;1.40;;;;;;;;;;4932011;28;20059;-59
2023/11/07 03:36:23;;;;;;;7.00;1.50;;;;;;;;;;4945331;28;20066;-59
2023/11/07 03:38:50;;;;;;;8.38;1.60;;;;;;;;;;4962011;28;20085;-59
2023/11/07 03:41:17;;;;;;;6.05;1.80;;;;;;;;;;4974314;28;20055;-59
2023/11/07 03:43:44;;;;;;;5.00;1.20;;;;;;;;;;4968653;28;22368;-59
2023/11/07 03:46:12;;;;;;;6.82;1.65;;;;;;;;;;4930869;28;20059;-59
2023/11/07 03:48:39;;;;;;;7.90;1.60;;;;;;;;;;4936599;28;20222;-58
2023/11/07 03:51:07;;;;;;;8.77;1.42;;;;;;;;;;4938878;28;20147;-59
2023/11/07 03:53:34;;;;;;;7.85;1.95;;;;;;;;;;4933226;28;20055;-59
2023/11/07 03:56:00;;;;;;;12.63;2.00;;;;;;;;;;4953199;28;20091;-59
2023/11/07 03:58:27;;;;;;;3.70;1.30;;;;;;;;;;4962875;28;20058;-59
2023/11/07 04:00:54;;;;;;;5.20;1.50;;;;;;;;;;4974751;28;20046;-59
2023/11/07 04:03:22;;;;;;;6.75;1.63;;;;;;;;;;4974787;28;20050;-59
2023/11/07 04:05:48;;;;;;;10.85;1.65;;;;;;;;;;4970511;28;20237;-59
2023/11/07 04:08:16;;;;;;;5.75;1.55;;;;;;;;;;4970020;28;20090;-58
2023/11/07 04:10:44;;;;;;;6.43;1.55;;;;;;;;;;4976654;28;20066;-61
2023/11/07 04:13:11;;;;;;;13.93;1.73;;;;;;;;;;4955334;28;20054;-58
2023/11/07 04:15:37;;;;;;;8.43;1.80;;;;;;;;;;4951437;28;20057;-59
2023/11/07 04:18:04;;;;;;;11.50;2.15;;;;;;;;;;4956077;28;20066;-60
2023/11/07 04:20:32;;;;;;;4.40;1.25;;;;;;;;;;4949501;28;20202;-59
2023/11/07 04:22:59;;;;;;;9.30;1.88;;;;;;;;;;4954782;28;20047;-61
2023/11/07 04:25:27;;;;;;;6.28;1.33;;;;;;;;;;4951396;28;20519;-61
2023/11/07 04:27:54;;;;;;;7.07;1.65;;;;;;;;;;4955842;28;20057;-59
2023/11/07 04:30:22;;;;;;;8.40;1.58;;;;;;;;;;4965310;28;20172;-59
2023/11/07 04:32:48;;;;;;;7.95;2.03;;;;;;;;;;5074696;28;20067;-59
2023/11/07 04:35:15;;;;;;;6.65;1.33;;;;;;;;;;5052651;28;21039;-59
2023/11/07 04:37:42;;;;;;;7.82;1.98;;;;;;;;;;5057731;28;20140;-60
2023/11/07 04:40:12;;;;;;;4.32;1.70;;;;;;;;;;5072513;28;20052;-59
2023/11/07 04:42:41;;;;;;;8.70;1.83;;;;;;;;;;5044467;28;20060;-59
2023/11/07 04:45:11;;;;;;;7.43;1.70;;;;;;;;;;5009651;28;20141;-59
2023/11/07 04:47:37;;;;;;;3.70;1.60;;;;;;;;;;5056889;28;20117;-59
2023/11/07 04:50:06;;;;;;;7.05;1.58;;;;;;;;;;5055144;28;20052;-59
2023/11/07 04:52:36;;;;;;;6.65;1.55;;;;;;;;;;5056264;28;20048;-60
2023/11/07 04:55:03;;;;;;;6.07;2.15;;;;;;;;;;5052269;28;20048;-60
2023/11/07 04:57:30;;;;;;;5.10;1.80;;;;;;;;;;4987817;28;20065;-59
2023/11/07 04:59:58;;;;;;;6.65;1.70;;;;;;;;;;4955759;28;20173;-59
2023/11/07 05:02:25;;;;;;;9.52;1.85;;;;;;;;;;4964319;28;20151;-59
2023/11/07 05:04:53;;;;;;;8.98;1.80;;;;;;;;;;4969946;28;20115;-59
2023/11/07 05:07:20;;;;;;;5.25;1.70;;;;;;;;;;4976353;28;20058;-59
2023/11/07 05:09:47;;;;;;;4.82;1.70;;;;;;;;;;4958599;28;20086;-59
2023/11/07 05:12:14;;;;;;;8.48;1.90;;;;;;;;;;4956785;28;20079;-59
2023/11/07 05:14:40;;;;;;;5.70;1.95;;;;;;;;;;4971080;28;20078;-59
2023/11/07 05:17:08;;;;;;;9.45;2.50;;;;;;;;;;4973479;28;20064;-59
2023/11/07 05:19:35;;;;;;;7.40;1.63;;;;;;;;;;4974131;28;20054;-60
2023/11/07 05:22:02;;;;;;;11.32;2.25;;;;;;;;;;4973654;28;20093;-60
2023/11/07 05:24:29;;;;;;;7.32;2.42;;;;;;;;;;4967314;28;20899;-59
2023/11/07 05:26:57;;;;;;;5.50;1.95;;;;;;;;;;4975638;28;20115;-59
2023/11/07 05:29:25;;;;;;;7.03;2.22;;;;;;;;;;4984172;28;20080;-59
2023/11/07 05:31:52;;;;;;;9.05;2.45;;;;;;;;;;4954763;28;20088;-59
2023/11/07 05:34:20;;;;;;;11.43;2.63;;;;;;;;;;4942815;28;20085;-59
2023/11/07 05:36:47;;;;;;;6.93;2.75;;;;;;;;;;4955771;28;20131;-59
2023/11/07 05:39:15;;;;;;;6.07;2.03;;;;;;;;;;4954724;28;20055;-59
2023/11/07 05:41:42;;;;;;;8.02;2.72;;;;;;;;;;4954478;28;20058;-59
2023/11/07 05:44:09;;;;;;;10.10;2.63;;;;;;;;;;5008445;28;20061;-60
2023/11/07 05:46:36;;;;;;;8.55;3.42;;;;;;;;;;4950523;28;20066;-59
2023/11/07 05:49:03;;;;;;;9.23;2.67;;;;;;;;;;4955421;28;20058;-59
2023/11/07 05:51:31;;;;;;;6.63;2.65;;;;;;;;;;4954573;28;20100;-60
2023/11/07 05:53:57;;;;;;;13.38;2.75;;;;;;;;;;4950343;28;20054;-59
2023/11/07 05:56:24;;;;;;;5.38;2.47;;;;;;;;;;4946793;28;20069;-59
2023/11/07 05:58:50;;;;;;;7.53;2.58;;;;;;;;;;4954225;28;20078;-60
2023/11/07 06:01:18;;;;;;;10.73;2.88;;;;;;;;;;4953897;28;20070;-59
2023/11/07 06:03:45;;;;;;;6.60;2.58;;;;;;;;;;4950041;28;22018;-59
2023/11/07 06:06:11;;;;;;;8.02;2.78;;;;;;;;;;4952233;28;20054;-61
2023/11/07 06:08:40;;;;;;;8.85;2.65;;;;;;;;;;4950947;28;20186;-60
2023/11/07 06:11:06;;;;;;;10.20;2.75;;;;;;;;;;4954045;28;20337;-59
2023/11/07 06:13:33;;;;;;;8.20;2.10;;;;;;;;;;4966550;28;20058;-60
2023/11/07 06:15:59;;;;;;;7.40;2.75;;;;;;;;;;4954982;28;20148;-59
2023/11/07 06:18:26;;;;;;;12.52;2.83;;;;;;;;;;4947544;28;20066;-59
2023/11/07 06:20:54;;;;;;;6.68;2.75;;;;;;;;;;4957798;28;20059;-60
2023/11/07 06:23:20;;;;;;;7.22;2.60;;;;;;;;;;5008446;28;20153;-59
2023/11/07 06:25:48;;;;;;;8.38;2.45;;;;;;;;;;5041745;28;20147;-60
2023/11/07 06:28:15;;;;;;;8.70;3.28;;;;;;;;;;5000182;28;20057;-61
2023/11/07 06:30:42;;;;;;;11.07;3.00;;;;;;;;;;4972928;28;20115;-59
2023/11/07 06:33:09;;;;;;;6.40;2.72;;;;;;;;;;4974744;28;20109;-61
2023/11/07 06:35:35;;;;;;;7.22;2.85;;;;;;;;;;4942876;28;20084;-60
2023/11/07 06:38:02;;;;;;;10.15;3.88;;;;;;;;;;4955192;28;20054;-60
2023/11/07 06:40:30;;;;;;;11.10;3.53;;;;;;;;;;4950272;28;20315;-60
2023/11/07 06:42:58;;;;;;;9.90;3.97;;;;;;;;;;4979099;28;20386;-60
2023/11/07 06:45:25;;;;;;;6.32;2.78;;;;;;;;;;4983475;28;20054;-60
2023/11/07 06:47:52;;;;;;;10.23;3.08;;;;;;;;;;4956359;28;20051;-60
2023/11/07 06:50:19;;;;;;;6.90;2.70;;;;;;;;;;4946554;28;20074;-60
2023/11/07 06:52:50;;;;;;;6.90;2.78;;;;;;;;;;4956684;28;20043;-59
2023/11/07 06:55:24;;;;;;;9.07;2.78;;;;;;;;;;4940156;28;20051;-59
2023/11/07 06:57:52;;;;;;;7.82;2.90;;;;;;;;;;4953639;28;20104;-60
2023/11/07 07:00:21;;;;;;;8.38;2.78;;;;;;;;;;4945741;28;20163;-57
2023/11/07 07:02:48;;;;;;;11.85;4.15;;;;;;;;;;4969768;28;20043;-59
2023/11/07 07:05:16;;;;;;;14.27;5.00;;;;;;;;;;4949838;28;20051;-61
2023/11/07 07:07:43;;;;;;;9.05;3.90;;;;;;;;;;4953873;28;20116;-59
2023/11/07 07:10:10;;;;;;;12.05;4.20;;;;;;;;;;4952085;28;20150;-60
2023/11/07 07:12:38;;;;;;;8.80;3.25;;;;;;;;;;4979039;28;20058;-59
2023/11/07 07:15:09;;;;;;;6.90;2.70;;;;;;;;;;4962475;28;20046;-61
2023/11/07 07:17:38;;;;;;;10.90;2.90;;;;;;;;;;4970885;28;20555;-60
2023/11/07 07:20:11;;;;;;;6.00;2.80;;;;;;;;;;4971922;28;20120;-60
2023/11/07 07:22:39;;;;;;;9.68;2.88;;;;;;;;;;4976266;28;20056;-60
2023/11/07 07:25:08;;;;;;;6.82;2.63;;;;;;;;;;4969552;28;20063;-59
2023/11/07 07:27:34;;;;;;;10.70;2.55;;;;;;;;;;4978028;28;20235;-59
2023/11/07 07:30:05;;;;;;;8.23;2.58;;;;;;;;;;4985445;28;20119;-60
2023/11/07 07:32:35;;;;;;;6.35;2.78;;;;;;;;;;4974527;28;20065;-60
2023/11/07 07:35:09;;;;;;;9.40;2.63;;;;;;;;;;4974596;28;20062;-60
2023/11/07 07:37:35;;;;;;;7.35;3.00;;;;;;;;;;4975718;28;20058;-60
2023/11/07 07:40:08;;;;;;;8.18;2.83;;;;;;;;;;4981080;28;20050;-61
2023/11/07 07:42:35;;;;;;;6.47;2.45;;;;;;;;;;4977087;28;20081;-59
2023/11/07 07:45:03;;;;;;;10.10;2.45;;;;;;;;;;4973763;28;20059;-59
2023/11/07 07:47:29;;;;;;;10.68;2.72;;;;;;;;;;4976185;28;20192;-61
2023/11/07 07:49:56;;;;;;;5.82;2.35;;;;;;;;;;4976155;28;20086;-60
2023/11/07 07:52:29;;;;;;;13.57;3.88;;;;;;;;;;4972454;28;20063;-60
2023/11/07 07:54:58;;;;;;;7.63;3.60;;;;;;;;;;4963380;28;20135;-60
2023/11/07 07:57:26;;;;;;;8.48;3.08;;;;;;;;;;4976211;28;20051;-60
2023/11/07 07:59:53;;;;;;;5.10;2.45;;;;;;;;;;4977405;28;20116;-59
2023/11/07 08:02:21;;;;;;;4.28;2.08;;;;;;;;;;4969365;28;20373;-59
2023/11/07 08:04:47;;;;;;;8.90;2.88;;;;;;;;;;4976394;28;20073;-59
2023/11/07 08:07:16;;;;;;;5.45;2.38;;;;;;;;;;4985256;28;20062;-59
2023/11/07 08:09:44;;;;;;;;;;;;;;;;;;4971615;28;20051;-61
2023/11/07 08:12:12;;;;;;;6.03;2.58;;;;;;;;;;4950493;28;19930;-61
2023/11/07 08:14:40;;;;;;;6.83;2.50;;;;;;;;;;4948453;28;20062;-61
2023/11/07 08:17:07;;;;;;;;;;;;;;;;;;4958886;28;20347;-60
2023/11/07 08:19:33;;;;;;;5.53;2.10;;;;;;;;;;4965401;28;19939;-59
2023/11/07 08:22:00;;;;;;;6.93;2.08;;;;;;;;;;5039465;28;20052;-59
2023/11/07 08:24:27;;;;;;;9.40;2.58;;;;;;;;;;4990287;28;20139;-59
2023/11/07 08:26:55;;;;;;;10.90;2.45;;;;;;;;;;4974923;28;20062;-59
2023/11/07 08:29:22;;;;;;;7.15;2.70;;;;;;;;;;4973969;28;20082;-59
2023/11/07 08:31:50;;;;;;;5.15;2.10;;;;;;;;;;4989953;28;20197;-60
2023/11/07 08:34:19;;;;;;;6.65;2.45;;;;;;;;;;4946029;28;20282;-59
2023/11/07 08:36:46;;;;;;;6.78;2.00;;;;;;;;;;4975025;28;20054;-60
2023/11/07 08:39:23;;;;;;;10.70;2.13;;;;;;;;;;4964246;28;20054;-59
2023/11/07 08:41:50;;;;;;;6.25;2.65;;;;;;;;;;4972032;28;20059;-59
2023/11/07 08:44:22;;;;;;;4.90;1.98;;;;;;;;;;4960229;28;20062;-59
2023/11/07 08:46:49;;;;;;;6.72;2.88;;;;;;;;;;4954526;28;20065;-58
2023/11/07 08:49:16;;;;;;;8.18;3.97;;;;;;;;;;4955168;28;20058;-60
2023/11/07 08:51:43;;;;;;;6.85;2.40;;;;;;;;;;4955225;28;20073;-61
2023/11/07 08:54:10;;;;;;;5.03;2.13;;;;;;;;;;4946315;28;20155;-60
2023/11/07 08:56:37;;;;;;;8.02;2.63;;;;;;;;;;4954411;28;20094;-59
2023/11/07 08:59:04;;;;;;;9.15;2.20;;;;;;;;;;4955940;28;20061;-60
2023/11/07 09:01:32;;;;;;;7.88;2.28;;;;;;;;;;4955431;28;20324;-59
2023/11/07 09:03:58;;;;;;;7.05;2.13;;;;;;;;;;4938314;28;20054;-61
2023/11/07 09:06:25;;;;;;;7.68;2.28;;;;;;;;;;4950332;28;20120;-60
2023/11/07 09:08:52;;;;;;;8.77;2.60;;;;;;;;;;4955720;28;20065;-60
2023/11/07 09:11:19;;;;;;;9.05;2.30;;;;;;;;;;4954552;28;20062;-60
2023/11/07 09:13:45;;;;;;;5.88;2.10;;;;;;;;;;4955732;28;20051;-60
2023/11/07 09:16:13;;;;;;;4.53;1.88;;;;;;;;;;4965890;28;20065;-60
2023/11/07 09:18:41;;;;;;;7.32;2.20;;;;;;;;;;4970799;28;20062;-59
2023/11/07 09:21:08;;;;;;;4.75;1.90;;;;;;;;;;4968202;28;20058;-61
2023/11/07 09:23:37;;;;;;;4.15;1.63;;;;;;;;;;4954879;28;20054;-60
2023/11/07 09:26:04;;;;;;;;;;;;;;;;;;4952728;28;20059;-61
2023/11/07 09:28:30;;;;;;;4.60;1.63;;;;;;;;;;4950985;28;19926;-59
2023/11/07 09:30:57;;;;;;;6.35;2.00;;;;;;;;;;4953956;28;20058;-59
2023/11/07 09:33:24;;;;;;;4.65;1.50;;;;;;;;;;4955390;28;20074;-60
2023/11/07 09:35:55;;;;;;;3.67;1.58;;;;;;;;;;4949625;28;20063;-59
2023/11/07 09:38:21;;;;;;;4.68;1.60;;;;;;;;;;4949284;28;20476;-58
2023/11/07 09:40:49;;;;;;;3.78;1.45;;;;;;;;;;4954572;28;20062;-58
2023/11/07 09:43:16;;;;;;;5.53;2.03;;;;;;;;;;4992738;28;20089;-57
2023/11/07 09:45:45;;;;;;;6.93;1.58;;;;;;;;;;4952380;28;20054;-58
2023/11/07 09:48:15;;;;;;;5.93;1.75;;;;;;;;;;4953315;28;20237;-63
2023/11/07 09:50:43;;;;;;;4.28;1.67;;;;;;;;;;4964261;28;20054;-60
2023/11/07 09:53:13;;;;;;;;;;;;;;;;;;4955568;28;20069;-59
2023/11/07 09:55:41;;;;;;;7.82;1.77;;;;;;;;;;4951556;28;19925;-57
2023/11/07 09:58:16;;;;;;;4.93;1.40;;;;;;;;;;4948873;28;20063;-60
2023/11/07 10:00:44;;;;;;;9.73;1.92;;;;;;;;;;4972291;28;20074;-57
2023/11/07 10:03:12;;;;;;;7.43;1.65;;;;;;;;;;4975775;28;20066;-58
2023/11/07 10:05:39;;;;;;;7.30;2.17;;;;;;;;;;4961669;28;20050;-58
2023/11/07 10:08:07;;;;;;;4.18;1.50;;;;;;;;;;4970686;28;20062;-58
2023/11/07 10:10:35;;;;;;;6.35;1.48;;;;;;;;;;4972364;28;20142;-58
2023/11/07 10:13:12;;;;;;;3.67;1.50;;;;;;;;;;4973635;28;20062;-57
2023/11/07 10:15:39;;;;;;;4.80;1.63;;;;;;;;;;4959650;28;20128;-57
2023/11/07 10:18:08;;;;;;;6.53;1.98;;;;;;;;;;4952381;28;20061;-60
2023/11/07 10:20:36;;;;;;;6.57;1.80;;;;;;;;;;4947030;28;20158;-56
2023/11/07 10:23:03;;;;;;;7.47;2.23;;;;;;;;;;4954448;28;20059;-57
2023/11/07 10:25:32;;;;;;;3.83;1.80;;;;;;;;;;4950492;28;20310;-59
2023/11/07 10:28:09;;;;;;;7.50;1.73;;;;;;;;;;4953293;28;20058;-57
2023/11/07 10:30:39;;;;;;;3.93;1.23;;;;;;;;;;5022540;28;20061;-59
2023/11/07 10:33:07;;;;;;;6.75;1.77;;;;;;;;;;5058056;28;20606;-61
2023/11/07 10:35:51;;;;;;;6.18;2.38;;;;;;;;;;4954061;28;20116;-59
2023/11/07 10:38:19;;;;;;;4.80;1.98;;;;;;;;;;4965607;28;20088;-61
2023/11/07 10:40:46;;;;;;;5.80;1.42;;;;;;;;;;4972029;28;20058;-61
2023/11/07 10:43:15;;;;;;;5.28;1.77;;;;;;;;;;4966336;28;20142;-60
2023/11/07 10:45:42;;;;;;;;;;;;;;;;;;5006310;28;20051;-61
2023/11/07 10:48:12;;;;;;;5.70;1.58;;;;;;;;;;4952356;28;19933;-61
2023/11/07 10:50:43;;;;;;;5.78;1.38;;;;;;;;;;4958632;28;20127;-61
2023/11/07 10:53:13;;;;;;;3.45;1.38;;;;;;;;;;4955354;28;20145;-62
2023/11/07 10:55:40;;;;;;;3.63;1.60;;;;;;;;;;4948720;28;20057;-61
2023/11/07 10:58:11;;;;;;;8.98;1.75;;;;;;;;;;4954610;28;20065;-62
2023/11/07 11:00:41;;;;;;;3.40;1.42;;;;;;;;;;4954061;28;20087;-61
2023/11/07 11:03:14;;;;;;;8.68;1.60;;;;;;;;;;4953714;28;20058;-62
2023/11/07 11:05:43;;;;;;;4.22;1.67;;;;;;;;;;4940388;28;20126;-61
2023/11/07 11:08:13;;;;;;;3.42;1.42;;;;;;;;;;4950209;28;20055;-62
2023/11/07 11:10:41;;;;;;;4.50;1.52;;;;;;;;;;4954820;28;20062;-61
2023/11/07 11:13:14;;;;;;;2.60;1.30;;;;;;;;;;4967922;28;20055;-62
2023/11/07 11:15:44;;;;;;;9.85;2.22;;;;;;;;;;4936629;28;20144;-61
2023/11/07 11:18:19;;;;;;;4.75;1.42;;;;;;;;;;4948038;28;20055;-61
2023/11/07 11:20:52;;;;;;;10.15;1.85;;;;;;;;;;4972637;28;20062;-61
2023/11/07 11:23:36;;;;;;;4.00;1.48;;;;;;;;;;4954183;28;20058;-61
2023/11/07 11:26:16;;;;;;;9.23;1.70;;;;;;;;;;4965257;28;20051;-61
2023/11/07 11:28:43;;;;;;;7.38;1.98;;;;;;;;;;4971577;28;20127;-60
2023/11/07 11:31:15;;;;;;;4.05;1.70;;;;;;;;;;4961961;28;20065;-59
2023/11/07 11:33:43;;;;;;;6.97;1.38;;;;;;;;;;4955931;28;20058;-61
2023/11/07 11:36:37;;;;;;;5.38;1.55;;;;;;;;;;4957664;28;20164;-59
2023/11/07 11:39:37;;;;;;;2.13;1.13;;;;;;;;;;4958289;28;20063;-60
2023/11/07 11:42:09;;;;;;;4.13;1.80;;;;;;;;;;4952715;28;20055;-61
2023/11/07 11:44:37;;;;;;;13.70;4.22;;;;;;;;;;5000258;28;20058;-59
2023/11/07 11:47:05;;;;;;;3.97;1.40;;;;;;;;;;4958509;28;20153;-60
2023/11/07 11:49:32;;;;;;;4.15;1.33;;;;;;;;;;4956715;28;20059;-61
2023/11/07 11:51:59;;;;;;;5.05;1.60;;;;;;;;;;4957974;28;20067;-59
2023/11/07 11:54:56;;;;;;;4.22;1.40;;;;;;;;;;4946417;28;20051;-59
2023/11/07 11:57:23;;;;;;;9.50;1.60;;;;;;;;;;4956386;28;20054;-60
2023/11/07 11:59:56;;;;;;;6.75;1.38;;;;;;;;;;4955972;28;20058;-59
2023/11/07 12:02:39;;;;;;;6.13;1.17;;;;;;;;;;4949648;28;20090;-59
2023/11/07 12:05:17;;;;;;;3.17;1.42;;;;;;;;;;4945844;28;20287;-60
2023/11/07 12:07:44;;;;;;;8.52;1.40;;;;;;;;;;4955697;28;20051;-59
2023/11/07 12:10:13;;;;;;;3.75;1.10;;;;;;;;;;4952664;28;20058;-60
2023/11/07 12:12:40;;;;;;;;;;;;;;;;;;4967993;28;20058;-60
2023/11/07 12:15:09;;;;;;;4.47;1.27;;;;;;;;;;4948643;28;19952;-59
2023/11/07 12:17:46;;;;;;;6.38;1.45;;;;;;;;;;4959808;28;20051;-59
2023/11/07 12:20:15;;;;;;;4.35;1.23;;;;;;;;;;4955993;28;20059;-60
2023/11/07 12:22:46;;;;;;;3.50;1.52;;;;;;;;;;4971013;28;20050;-59
2023/11/07 12:25:16;;;;;;;7.50;1.20;;;;;;;;;;4953257;28;20120;-61
2023/11/07 12:27:44;;;;;;;6.88;1.60;;;;;;;;;;4960130;28;20051;-60
2023/11/07 12:30:18;;;;;;;6.60;1.33;;;;;;;;;;4953520;28;20063;-60
2023/11/07 12:32:46;;;;;;;2.75;1.20;;;;;;;;;;4957329;28;20117;-60
2023/11/07 12:35:21;;;;;;;3.25;1.30;;;;;;;;;;4956886;28;20055;-61
2023/11/07 12:37:48;;;;;;;2.10;1.15;;;;;;;;;;5054625;28;20056;-62
2023/11/07 12:40:16;;;;;;;4.17;1.40;;;;;;;;;;4955062;28;20058;-61
2023/11/07 12:42:51;;;;;;;4.10;1.20;;;;;;;;;;4974615;28;20056;-61
2023/11/07 12:45:22;;;;;;;3.35;1.17;;;;;;;;;;4982361;28;20055;-61
2023/11/07 12:47:59;;;;;;;3.05;1.17;;;;;;;;;;4958630;28;20067;-62
2023/11/07 12:50:30;;;;;;;2.33;1.10;;;;;;;;;;4969688;28;20052;-61
2023/11/07 12:52:58;;;;;;;4.60;1.80;;;;;;;;;;4958654;28;20157;-60
2023/11/07 12:55:26;;;;;;;5.80;1.37;;;;;;;;;;4946102;28;20054;-61
2023/11/07 12:57:55;;;;;;;6.10;1.60;;;;;;;;;;4956661;28;20123;-59
2023/11/07 13:00:22;;;;;;;6.65;1.65;;;;;;;;;;4956212;28;20589;-59
2023/11/07 13:02:50;;;;;;;9.02;2.80;;;;;;;;;;4956798;28;20054;-59
2023/11/07 13:05:18;;;;;;;9.50;2.15;;;;;;;;;;4952335;28;20059;-59
2023/11/07 13:07:46;;;;;;;5.70;1.48;;;;;;;;;;4958076;28;20063;-59
2023/11/07 13:10:14;;;;;;;4.00;1.60;;;;;;;;;;4952931;28;20086;-59
2023/11/07 13:12:41;;;;;;;4.22;1.30;;;;;;;;;;4969283;28;20158;-60
2023/11/07 13:15:10;;;;;;;10.82;1.77;;;;;;;;;;4988405;28;20052;-60
2023/11/07 13:17:38;;;;;;;;;;;;;;;;;;4961899;28;20059;-60
2023/11/07 13:20:13;;;;;;;3.78;1.80;;;;;;;;;;4958454;28;19926;-59
2023/11/07 13:22:42;;;;;;;5.78;1.70;;;;;;;;;;4957375;28;20292;-60
2023/11/07 13:25:11;;;;;;;2.15;1.40;;;;;;;;;;4933371;28;20062;-59
2023/11/07 13:27:38;;;;;;;7.00;1.80;;;;;;;;;;4957552;28;20109;-59
2023/11/07 13:30:13;;;;;;;5.72;1.45;;;;;;;;;;4955749;28;20059;-60
2023/11/07 13:32:40;;;;;;;3.63;1.38;;;;;;;;;;4956764;28;20054;-59
2023/11/07 13:35:07;;;;;;;9.23;2.05;;;;;;;;;;4953019;28;20070;-59
2023/11/07 13:37:36;;;;;;;7.25;1.85;;;;;;;;;;4958364;28;20062;-60
2023/11/07 13:40:13;;;;;;;3.80;1.60;;;;;;;;;;4955418;28;20065;-61
2023/11/07 13:42:43;;;;;;;3.70;1.40;;;;;;;;;;4968647;28;20061;-60
2023/11/07 13:45:11;;;;;;;5.72;1.55;;;;;;;;;;5004362;28;20063;-60
2023/11/07 13:47:37;;;;;;;2.42;1.27;;;;;;;;;;4957277;28;20147;-60
2023/11/07 13:50:07;;;;;;;4.72;1.70;;;;;;;;;;4953557;28;20059;-61
2023/11/07 13:52:34;;;;;;;4.35;1.52;;;;;;;;;;4953409;28;20051;-61
2023/11/07 13:55:01;;;;;;;4.05;1.55;;;;;;;;;;4947635;28;20066;-61
2023/11/07 13:57:29;;;;;;;3.25;1.52;;;;;;;;;;4954890;28;20108;-61
2023/11/07 13:59:55;;;;;;;4.13;1.50;;;;;;;;;;4969455;28;20059;-61
2023/11/07 14:02:22;;;;;;;10.60;2.53;;;;;;;;;;4931594;28;20074;-59
2023/11/07 14:04:49;;;;;;;10.98;3.97;;;;;;;;;;4915265;28;20059;-59
2023/11/07 14:07:17;;;;;;;7.57;2.20;;;;;;;;;;4964130;28;20069;-59
2023/11/07 14:09:44;;;;;;;5.55;1.63;;;;;;;;;;4958883;28;20140;-58
2023/11/07 14:12:13;;;;;;;3.58;1.63;;;;;;;;;;4966210;28;20047;-59
2023/11/07 14:14:46;;;;;;;3.78;1.65;;;;;;;;;;4971887;28;20065;-59
2023/11/07 14:17:16;;;;;;;3.00;1.50;;;;;;;;;;4994681;28;20141;-60
2023/11/07 14:19:43;;;;;;;3.83;1.42;;;;;;;;;;5057967;28;20064;-60
2023/11/07 14:22:11;;;;;;;3.65;1.50;;;;;;;;;;4976044;28;20095;-60
2023/11/07 14:24:38;;;;;;;4.45;1.55;;;;;;;;;;4949510;28;20112;-60
2023/11/07 14:27:06;;;;;;;4.93;1.60;;;;;;;;;;4962571;28;20480;-59
2023/11/07 14:29:34;;;;;;;4.60;1.20;;;;;;;;;;4961062;28;20092;-59
2023/11/07 14:32:06;;;;;;;3.25;1.40;;;;;;;;;;4958154;28;20051;-59
2023/11/07 14:34:33;;;;;;;5.40;1.30;;;;;;;;;;4936312;28;20096;-60
2023/11/07 14:37:00;;;;;;;5.82;1.35;;;;;;;;;;4962641;28;20055;-60
2023/11/07 14:39:27;;;;;;;5.68;1.35;;;;;;;;;;4958546;28;20069;-60
2023/11/07 14:41:53;;;;;;;2.55;1.25;;;;;;;;;;4959909;28;20051;-60
2023/11/07 14:44:20;;;;;;;6.10;1.40;;;;;;;;;;5009464;28;20065;-61
2023/11/07 14:46:47;;;;;;;6.47;1.40;;;;;;;;;;4957867;28;20468;-61
2023/11/07 14:49:17;;;;;;;7.28;1.58;;;;;;;;;;4960506;28;20063;-61